Time;durP1;ratioP1;P1;durP2;ratioP2;P2;SDS_P1;SDS_P2;PMS_P1;PMS_P2;Temp;Humidity;BMP_temperature;BMP_pressure;BME280_temperature;BME280_humidity;BME280_pressure;Samples;Min_cycle;Max_cycle;Signal;HPM_P1;HPM_P2
2021/08/13 00:00:53;;;;;;;13.7;12.4;;;;;;;18.57;82.03223;95609.48;;;;
2021/08/13 00:01:53;;;;;;;13.7;12.4;;;;;;;18.57;82.03223;95609.48;;;;
2021/08/13 00:02:54;;;;;;;13.7;12.4;;;;;;;18.57;82.03223;95609.48;;;;
2021/08/13 00:03:54;;;;;;;13.7;12.4;;;;;;;18.57;82.03223;95609.48;;;;
2021/08/13 00:04:55;;;;;;;13.25;12.05;;;;;;;18.5;82.73633;95593.91;;;;
2021/08/13 00:05:56;;;;;;;13.25;12.05;;;;;;;18.5;82.73633;95593.91;;;;
2021/08/13 00:06:56;;;;;;;13.25;12.05;;;;;;;18.5;82.73633;95593.91;;;;
2021/08/13 00:07:57;;;;;;;13.25;12.05;;;;;;;18.5;82.73633;95593.91;;;;
2021/08/13 00:08:57;;;;;;;13.25;12.05;;;;;;;18.5;82.73633;95593.91;;;;
2021/08/13 00:09:58;;;;;;;13.25;12.05;;;;;;;18.5;82.73633;95593.91;;;;
2021/08/13 00:10:58;;;;;;;13.25;12.05;;;;;;;18.5;82.73633;95593.91;;;;
2021/08/13 00:11:59;;;;;;;13.25;12.05;;;;;;;18.5;82.73633;95593.91;;;;
2021/08/13 00:13:00;;;;;;;13.25;12.05;;;;;;;18.5;82.73633;95593.91;;;;
2021/08/13 00:14:00;;;;;;;13.25;12.05;;;;;;;18.5;82.73633;95593.91;;;;
2021/08/13 00:15:01;;;;;;;13.9;12.55;;;;;;;18.46;83.35938;95596.95;;;;
2021/08/13 00:16:02;;;;;;;13.9;12.55;;;;;;;18.46;83.35938;95596.95;;;;
2021/08/13 00:17:03;;;;;;;13.9;12.55;;;;;;;18.46;83.35938;95596.95;;;;
2021/08/13 00:18:03;;;;;;;13.9;12.55;;;;;;;18.46;83.35938;95596.95;;;;
2021/08/13 00:19:04;;;;;;;13.9;12.55;;;;;;;18.46;83.35938;95596.95;;;;
2021/08/13 00:20:04;;;;;;;13.9;12.55;;;;;;;18.46;83.35938;95596.95;;;;
2021/08/13 00:21:06;;;;;;;13.9;12.55;;;;;;;18.46;83.35938;95596.95;;;;
2021/08/13 00:22:08;;;;;;;13.9;12.55;;;;;;;18.46;83.35938;95596.95;;;;
2021/08/13 00:23:08;;;;;;;13.9;12.55;;;;;;;18.46;83.35938;95596.95;;;;
2021/08/13 00:24:09;;;;;;;13.9;12.55;;;;;;;18.46;83.35938;95596.95;;;;
2021/08/13 00:25:09;;;;;;;13.9;12.55;;;;;;;18.46;83.35938;95596.95;;;;
2021/08/13 00:26:10;;;;;;;15.2;13.7;;;;;;;18.46;83.73926;95583.67;;;;
2021/08/13 00:27:10;;;;;;;15.2;13.7;;;;;;;18.46;83.73926;95583.67;;;;
2021/08/13 00:28:11;;;;;;;15.2;13.7;;;;;;;18.46;83.73926;95583.67;;;;
2021/08/13 00:29:11;;;;;;;15.2;13.7;;;;;;;18.46;83.73926;95583.67;;;;
2021/08/13 00:30:12;;;;;;;15.2;13.7;;;;;;;18.46;83.73926;95583.67;;;;
2021/08/13 00:31:12;;;;;;;15.2;13.7;;;;;;;18.46;83.73926;95583.67;;;;
2021/08/13 00:32:13;;;;;;;15.2;13.7;;;;;;;18.46;83.73926;95583.67;;;;
2021/08/13 00:33:14;;;;;;;15.2;13.7;;;;;;;18.46;83.73926;95583.67;;;;
2021/08/13 00:34:14;;;;;;;15.2;13.7;;;;;;;18.46;83.73926;95583.67;;;;
2021/08/13 00:35:15;;;;;;;15.2;13.7;;;;;;;18.46;83.73926;95583.67;;;;
2021/08/13 00:36:15;;;;;;;14.25;12.55;;;;;;;18.41;84.33887;95599.65;;;;
2021/08/13 00:37:16;;;;;;;14.25;12.55;;;;;;;18.41;84.33887;95599.65;;;;
2021/08/13 00:38:17;;;;;;;14.25;12.55;;;;;;;18.41;84.33887;95599.65;;;;
2021/08/13 00:39:18;;;;;;;14.25;12.55;;;;;;;18.41;84.33887;95599.65;;;;
2021/08/13 00:40:19;;;;;;;14.25;12.55;;;;;;;18.41;84.33887;95599.65;;;;
2021/08/13 00:41:19;;;;;;;14.25;12.55;;;;;;;18.41;84.33887;95599.65;;;;
2021/08/13 00:42:20;;;;;;;14.25;12.55;;;;;;;18.41;84.33887;95599.65;;;;
2021/08/13 00:43:20;;;;;;;14.25;12.55;;;;;;;18.41;84.33887;95599.65;;;;
2021/08/13 00:44:21;;;;;;;14.25;12.55;;;;;;;18.41;84.33887;95599.65;;;;
2021/08/13 00:45:22;;;;;;;14.25;12.55;;;;;;;18.41;84.33887;95599.65;;;;
2021/08/13 00:46:22;;;;;;;14.25;12.55;;;;;;;18.41;84.33887;95599.65;;;;
2021/08/13 00:47:23;;;;;;;13.35;12.05;;;;;;;18.5;84.8457;95585.58;;;;
2021/08/13 00:48:23;;;;;;;13.35;12.05;;;;;;;18.5;84.8457;95585.58;;;;
2021/08/13 00:49:24;;;;;;;13.35;12.05;;;;;;;18.5;84.8457;95585.58;;;;
2021/08/13 00:50:24;;;;;;;13.35;12.05;;;;;;;18.5;84.8457;95585.58;;;;
2021/08/13 00:51:25;;;;;;;13.35;12.05;;;;;;;18.5;84.8457;95585.58;;;;
2021/08/13 00:52:26;;;;;;;13.35;12.05;;;;;;;18.5;84.8457;95585.58;;;;
2021/08/13 00:53:27;;;;;;;13.35;12.05;;;;;;;18.5;84.8457;95585.58;;;;
2021/08/13 00:54:27;;;;;;;13.35;12.05;;;;;;;18.5;84.8457;95585.58;;;;
2021/08/13 00:55:28;;;;;;;13.35;12.05;;;;;;;18.5;84.8457;95585.58;;;;
2021/08/13 00:56:29;;;;;;;13.35;12.05;;;;;;;18.5;84.8457;95585.58;;;;
2021/08/13 00:57:30;;;;;;;12.7;11.5;;;;;;;18.66;85.16797;95590.45;;;;
2021/08/13 00:58:30;;;;;;;12.7;11.5;;;;;;;18.66;85.16797;95590.45;;;;
2021/08/13 00:59:31;;;;;;;12.7;11.5;;;;;;;18.66;85.16797;95590.45;;;;
2021/08/13 01:00:32;;;;;;;12.7;11.5;;;;;;;18.66;85.16797;95590.45;;;;
2021/08/13 01:01:33;;;;;;;12.7;11.5;;;;;;;18.66;85.16797;95590.45;;;;
2021/08/13 01:02:34;;;;;;;12.7;11.5;;;;;;;18.66;85.16797;95590.45;;;;
2021/08/13 01:03:34;;;;;;;12.7;11.5;;;;;;;18.66;85.16797;95590.45;;;;
2021/08/13 01:04:35;;;;;;;12.7;11.5;;;;;;;18.66;85.16797;95590.45;;;;
2021/08/13 01:05:36;;;;;;;12.7;11.5;;;;;;;18.66;85.16797;95590.45;;;;
2021/08/13 01:06:37;;;;;;;12.7;11.5;;;;;;;18.66;85.16797;95590.45;;;;
2021/08/13 01:07:37;;;;;;;12.7;11.5;;;;;;;18.66;85.16797;95590.45;;;;
2021/08/13 01:08:38;;;;;;;13.45;11.95;;;;;;;18.78;85.23438;95601.09;;;;
2021/08/13 01:09:39;;;;;;;13.45;11.95;;;;;;;18.78;85.23438;95601.09;;;;
2021/08/13 01:10:40;;;;;;;13.45;11.95;;;;;;;18.78;85.23438;95601.09;;;;
2021/08/13 01:11:46;;;;;;;13.45;11.95;;;;;;;18.78;85.23438;95601.09;;;;
2021/08/13 01:12:58;;;;;;;13.45;11.95;;;;;;;18.78;85.23438;95601.09;;;;
2021/08/13 01:14:08;;;;;;;13.45;11.95;;;;;;;18.78;85.23438;95601.09;;;;
2021/08/13 01:15:16;;;;;;;13.45;11.95;;;;;;;18.78;85.23438;95601.09;;;;
2021/08/13 01:16:18;;;;;;;13.45;11.95;;;;;;;18.78;85.23438;95601.09;;;;
2021/08/13 01:17:20;;;;;;;13.45;11.95;;;;;;;18.78;85.23438;95601.09;;;;
2021/08/13 01:18:21;;;;;;;13.45;11.95;;;;;;;18.78;85.23438;95601.09;;;;
2021/08/13 01:19:27;;;;;;;14;11.95;;;;;;;18.75;85.44629;95622.56;;;;
2021/08/13 01:20:41;;;;;;;14;11.95;;;;;;;18.75;85.44629;95622.56;;;;
2021/08/13 01:21:57;;;;;;;14;11.95;;;;;;;18.75;85.44629;95622.56;;;;
2021/08/13 01:23:02;;;;;;;14;11.95;;;;;;;18.75;85.44629;95622.56;;;;
2021/08/13 01:24:09;;;;;;;14;11.95;;;;;;;18.75;85.44629;95622.56;;;;
2021/08/13 01:25:14;;;;;;;14;11.95;;;;;;;18.75;85.44629;95622.56;;;;
2021/08/13 01:28:17;;;;;;;14;11.95;;;;;;;18.75;85.44629;95622.56;;;;
2021/08/13 01:29:34;;;;;;;14;11.95;;;;;;;18.75;85.44629;95622.56;;;;
2021/08/13 01:30:41;;;;;;;14;11.95;;;;;;;18.75;85.44629;95622.56;;;;
2021/08/13 01:31:41;;;;;;;14;11.95;;;;;;;18.75;85.44629;95622.56;;;;
2021/08/13 01:32:51;;;;;;;14;11.95;;;;;;;18.75;85.44629;95622.56;;;;
2021/08/13 01:33:57;;;;;;;14;11.95;;;;;;;18.75;85.44629;95622.56;;;;
2021/08/13 01:35:00;;;;;;;14;11.95;;;;;;;18.75;85.44629;95622.56;;;;
2021/08/13 01:36:05;;;;;;;14;11.95;;;;;;;18.75;85.44629;95622.56;;;;
2021/08/13 01:37:08;;;;;;;14;11.95;;;;;;;18.75;85.44629;95622.56;;;;
2021/08/13 01:38:09;;;;;;;14;11.95;;;;;;;18.75;85.44629;95622.56;;;;
2021/08/13 01:39:13;;;;;;;14;11.95;;;;;;;18.75;85.44629;95622.56;;;;
2021/08/13 01:40:16;;;;;;;12.7;11.5;;;;;;;18.57;86.13965;95660.91;;;;
2021/08/13 01:41:17;;;;;;;12.7;11.5;;;;;;;18.57;86.13965;95660.91;;;;
2021/08/13 01:42:18;;;;;;;12.7;11.5;;;;;;;18.57;86.13965;95660.91;;;;
2021/08/13 01:43:19;;;;;;;12.7;11.5;;;;;;;18.57;86.13965;95660.91;;;;
2021/08/13 01:44:23;;;;;;;12.7;11.5;;;;;;;18.57;86.13965;95660.91;;;;
2021/08/13 01:45:25;;;;;;;12.7;11.5;;;;;;;18.57;86.13965;95660.91;;;;
2021/08/13 01:46:31;;;;;;;12.7;11.5;;;;;;;18.57;86.13965;95660.91;;;;
2021/08/13 01:47:32;;;;;;;12.7;11.5;;;;;;;18.57;86.13965;95660.91;;;;
2021/08/13 01:48:33;;;;;;;12.7;11.5;;;;;;;18.57;86.13965;95660.91;;;;
2021/08/13 01:49:35;;;;;;;12.7;11.5;;;;;;;18.57;86.13965;95660.91;;;;
2021/08/13 01:50:36;;;;;;;12.7;11.5;;;;;;;18.57;86.13965;95660.91;;;;
2021/08/13 01:51:38;;;;;;;13.35;12.05;;;;;;;18.41;86.6084;95638.79;;;;
2021/08/13 01:52:38;;;;;;;13.35;12.05;;;;;;;18.41;86.6084;95638.79;;;;
2021/08/13 01:53:41;;;;;;;13.35;12.05;;;;;;;18.41;86.6084;95638.79;;;;
2021/08/13 01:54:43;;;;;;;13.35;12.05;;;;;;;18.41;86.6084;95638.79;;;;
2021/08/13 01:55:44;;;;;;;13.35;12.05;;;;;;;18.41;86.6084;95638.79;;;;
2021/08/13 01:56:45;;;;;;;13.35;12.05;;;;;;;18.41;86.6084;95638.79;;;;
2021/08/13 01:57:46;;;;;;;13.35;12.05;;;;;;;18.41;86.6084;95638.79;;;;
2021/08/13 01:58:47;;;;;;;13.35;12.05;;;;;;;18.41;86.6084;95638.79;;;;
2021/08/13 01:59:48;;;;;;;13.35;12.05;;;;;;;18.41;86.6084;95638.79;;;;
2021/08/13 02:00:50;;;;;;;13.35;12.05;;;;;;;18.41;86.6084;95638.79;;;;
2021/08/13 02:01:52;;;;;;;13.25;11.95;;;;;;;18.25;87.21777;95655.86;;;;
2021/08/13 02:02:53;;;;;;;13.25;11.95;;;;;;;18.25;87.21777;95655.86;;;;
2021/08/13 02:03:56;;;;;;;13.25;11.95;;;;;;;18.25;87.21777;95655.86;;;;
2021/08/13 02:04:58;;;;;;;13.25;11.95;;;;;;;18.25;87.21777;95655.86;;;;
2021/08/13 02:06:01;;;;;;;13.25;11.95;;;;;;;18.25;87.21777;95655.86;;;;
2021/08/13 02:07:01;;;;;;;13.25;11.95;;;;;;;18.25;87.21777;95655.86;;;;
2021/08/13 02:08:02;;;;;;;13.25;11.95;;;;;;;18.25;87.21777;95655.86;;;;
2021/08/13 02:09:05;;;;;;;13.25;11.95;;;;;;;18.25;87.21777;95655.86;;;;
2021/08/13 02:10:06;;;;;;;13.25;11.95;;;;;;;18.25;87.21777;95655.86;;;;
2021/08/13 02:11:10;;;;;;;13.25;11.95;;;;;;;18.25;87.21777;95655.86;;;;
2021/08/13 02:12:13;;;;;;;13.95;12.6;;;;;;;18.09;87.80371;95668.72;;;;
2021/08/13 02:13:14;;;;;;;13.95;12.6;;;;;;;18.09;87.80371;95668.72;;;;
2021/08/13 02:14:15;;;;;;;13.95;12.6;;;;;;;18.09;87.80371;95668.72;;;;
2021/08/13 02:15:17;;;;;;;13.95;12.6;;;;;;;18.09;87.80371;95668.72;;;;
2021/08/13 02:16:18;;;;;;;13.95;12.6;;;;;;;18.09;87.80371;95668.72;;;;
2021/08/13 02:17:24;;;;;;;13.95;12.6;;;;;;;18.09;87.80371;95668.72;;;;
2021/08/13 02:18:27;;;;;;;13.95;12.6;;;;;;;18.09;87.80371;95668.72;;;;
2021/08/13 02:19:30;;;;;;;13.95;12.6;;;;;;;18.09;87.80371;95668.72;;;;
2021/08/13 02:20:36;;;;;;;13.95;12.6;;;;;;;18.09;87.80371;95668.72;;;;
2021/08/13 02:21:39;;;;;;;13.95;12.6;;;;;;;18.09;87.80371;95668.72;;;;
2021/08/13 02:22:43;;;;;;;15.25;13.45;;;;;;;18.02;88.18164;95669.55;;;;
2021/08/13 02:23:43;;;;;;;15.25;13.45;;;;;;;18.02;88.18164;95669.55;;;;
2021/08/13 02:24:44;;;;;;;15.25;13.45;;;;;;;18.02;88.18164;95669.55;;;;
2021/08/13 02:25:44;;;;;;;15.25;13.45;;;;;;;18.02;88.18164;95669.55;;;;
2021/08/13 02:26:45;;;;;;;15.25;13.45;;;;;;;18.02;88.18164;95669.55;;;;
2021/08/13 02:27:47;;;;;;;15.25;13.45;;;;;;;18.02;88.18164;95669.55;;;;
2021/08/13 02:28:48;;;;;;;15.25;13.45;;;;;;;18.02;88.18164;95669.55;;;;
2021/08/13 02:29:49;;;;;;;15.25;13.45;;;;;;;18.02;88.18164;95669.55;;;;
2021/08/13 02:30:49;;;;;;;15.25;13.45;;;;;;;18.02;88.18164;95669.55;;;;
2021/08/13 02:31:50;;;;;;;15.25;13.45;;;;;;;18.02;88.18164;95669.55;;;;
2021/08/13 02:32:50;;;;;;;15.25;13.45;;;;;;;18.02;88.18164;95669.55;;;;
2021/08/13 02:33:51;;;;;;;14.05;12.75;;;;;;;17.86;88.68066;95669.26;;;;
2021/08/13 02:34:51;;;;;;;14.05;12.75;;;;;;;17.86;88.68066;95669.26;;;;
2021/08/13 02:35:53;;;;;;;14.05;12.75;;;;;;;17.86;88.68066;95669.26;;;;
2021/08/13 02:37:02;;;;;;;14.05;12.75;;;;;;;17.86;88.68066;95669.26;;;;
2021/08/13 02:38:12;;;;;;;14.05;12.75;;;;;;;17.86;88.68066;95669.26;;;;
2021/08/13 02:39:16;;;;;;;14.05;12.75;;;;;;;17.86;88.68066;95669.26;;;;
2021/08/13 02:40:23;;;;;;;14.05;12.75;;;;;;;17.86;88.68066;95669.26;;;;
2021/08/13 02:41:28;;;;;;;14.05;12.75;;;;;;;17.86;88.68066;95669.26;;;;
2021/08/13 02:42:32;;;;;;;14.05;12.75;;;;;;;17.86;88.68066;95669.26;;;;
2021/08/13 02:43:38;;;;;;;14.05;12.75;;;;;;;17.86;88.68066;95669.26;;;;
2021/08/13 02:44:43;;;;;;;14.9;13.5;;;;;;;17.7;89.40625;95666.63;;;;
2021/08/13 02:45:47;;;;;;;14.9;13.5;;;;;;;17.7;89.40625;95666.63;;;;
2021/08/13 02:46:52;;;;;;;14.9;13.5;;;;;;;17.7;89.40625;95666.63;;;;
2021/08/13 02:47:58;;;;;;;14.9;13.5;;;;;;;17.7;89.40625;95666.63;;;;
2021/08/13 02:49:00;;;;;;;14.9;13.5;;;;;;;17.7;89.40625;95666.63;;;;
2021/08/13 02:50:02;;;;;;;14.9;13.5;;;;;;;17.7;89.40625;95666.63;;;;
2021/08/13 02:51:05;;;;;;;14.9;13.5;;;;;;;17.7;89.40625;95666.63;;;;
2021/08/13 02:52:10;;;;;;;14.9;13.5;;;;;;;17.7;89.40625;95666.63;;;;
2021/08/13 02:53:14;;;;;;;14.9;13.5;;;;;;;17.7;89.40625;95666.63;;;;
2021/08/13 02:54:17;;;;;;;14.9;13.5;;;;;;;17.7;89.40625;95666.63;;;;
2021/08/13 02:55:22;;;;;;;14.9;13.5;;;;;;;17.7;89.40625;95666.63;;;;
2021/08/13 02:56:30;;;;;;;14.9;13.5;;;;;;;17.7;89.40625;95666.63;;;;
2021/08/13 02:57:33;;;;;;;14.9;13.5;;;;;;;17.7;89.40625;95666.63;;;;
2021/08/13 02:58:36;;;;;;;14.9;13.5;;;;;;;17.7;89.40625;95666.63;;;;
2021/08/13 02:59:42;;;;;;;14.9;13.5;;;;;;;17.7;89.40625;95666.63;;;;
2021/08/13 03:00:45;;;;;;;14.9;13.5;;;;;;;17.7;89.40625;95666.63;;;;
2021/08/13 03:01:47;;;;;;;14.9;13.5;;;;;;;17.7;89.40625;95666.63;;;;
2021/08/13 03:02:49;;;;;;;14.9;13.5;;;;;;;17.7;89.40625;95666.63;;;;
2021/08/13 03:03:52;;;;;;;14.9;13.5;;;;;;;17.7;89.40625;95666.63;;;;
2021/08/13 03:04:54;;;;;;;14.9;13.5;;;;;;;17.7;89.40625;95666.63;;;;
2021/08/13 03:05:56;;;;;;;14.8;13.4;;;;;;;17.54;90.45605;95671.78;;;;
2021/08/13 03:07:00;;;;;;;14.8;13.4;;;;;;;17.54;90.45605;95671.78;;;;
2021/08/13 03:08:01;;;;;;;14.8;13.4;;;;;;;17.54;90.45605;95671.78;;;;
2021/08/13 03:09:02;;;;;;;14.8;13.4;;;;;;;17.54;90.45605;95671.78;;;;
2021/08/13 03:10:03;;;;;;;14.8;13.4;;;;;;;17.54;90.45605;95671.78;;;;
2021/08/13 03:11:06;;;;;;;14.8;13.4;;;;;;;17.54;90.45605;95671.78;;;;
2021/08/13 03:12:10;;;;;;;14.8;13.4;;;;;;;17.54;90.45605;95671.78;;;;
2021/08/13 03:13:10;;;;;;;14.8;13.4;;;;;;;17.54;90.45605;95671.78;;;;
2021/08/13 03:14:11;;;;;;;14.8;13.4;;;;;;;17.54;90.45605;95671.78;;;;
2021/08/13 03:15:13;;;;;;;14.8;13.4;;;;;;;17.54;90.45605;95671.78;;;;
2021/08/13 03:16:15;;;;;;;15;13.5;;;;;;;17.7;91.13867;95676.18;;;;
2021/08/13 03:17:17;;;;;;;15;13.5;;;;;;;17.7;91.13867;95676.18;;;;
2021/08/13 03:18:18;;;;;;;15;13.5;;;;;;;17.7;91.13867;95676.18;;;;
2021/08/13 03:19:19;;;;;;;15;13.5;;;;;;;17.7;91.13867;95676.18;;;;
2021/08/13 03:20:20;;;;;;;15;13.5;;;;;;;17.7;91.13867;95676.18;;;;
2021/08/13 03:21:21;;;;;;;15;13.5;;;;;;;17.7;91.13867;95676.18;;;;
2021/08/13 03:22:22;;;;;;;15;13.5;;;;;;;17.7;91.13867;95676.18;;;;
2021/08/13 03:23:22;;;;;;;15;13.5;;;;;;;17.7;91.13867;95676.18;;;;
2021/08/13 03:24:24;;;;;;;15;13.5;;;;;;;17.7;91.13867;95676.18;;;;
2021/08/13 03:25:24;;;;;;;15;13.5;;;;;;;17.7;91.13867;95676.18;;;;
2021/08/13 03:26:26;;;;;;;15;13.5;;;;;;;17.7;91.13867;95676.18;;;;
2021/08/13 03:27:27;;;;;;;13.9;12.55;;;;;;;17.76;91.50684;95676.06;;;;
2021/08/13 03:28:28;;;;;;;13.9;12.55;;;;;;;17.76;91.50684;95676.06;;;;
2021/08/13 03:29:29;;;;;;;13.9;12.55;;;;;;;17.76;91.50684;95676.06;;;;
2021/08/13 03:30:29;;;;;;;13.9;12.55;;;;;;;17.76;91.50684;95676.06;;;;
2021/08/13 03:31:37;;;;;;;13.9;12.55;;;;;;;17.76;91.50684;95676.06;;;;
2021/08/13 03:32:41;;;;;;;13.9;12.55;;;;;;;17.76;91.50684;95676.06;;;;
2021/08/13 03:33:42;;;;;;;13.9;12.55;;;;;;;17.76;91.50684;95676.06;;;;
2021/08/13 03:34:43;;;;;;;13.9;12.55;;;;;;;17.76;91.50684;95676.06;;;;
2021/08/13 03:35:43;;;;;;;13.9;12.55;;;;;;;17.76;91.50684;95676.06;;;;
2021/08/13 03:36:44;;;;;;;13.9;12.55;;;;;;;17.76;91.50684;95676.06;;;;
2021/08/13 03:37:45;;;;;;;13.25;11.35;;;;;;;17.86;91.80957;95678.41;;;;
2021/08/13 03:38:45;;;;;;;13.25;11.35;;;;;;;17.86;91.80957;95678.41;;;;
2021/08/13 03:39:47;;;;;;;13.25;11.35;;;;;;;17.86;91.80957;95678.41;;;;
2021/08/13 03:40:47;;;;;;;13.25;11.35;;;;;;;17.86;91.80957;95678.41;;;;
2021/08/13 03:41:48;;;;;;;13.25;11.35;;;;;;;17.86;91.80957;95678.41;;;;
2021/08/13 03:42:49;;;;;;;13.25;11.35;;;;;;;17.86;91.80957;95678.41;;;;
2021/08/13 03:43:49;;;;;;;13.25;11.35;;;;;;;17.86;91.80957;95678.41;;;;
2021/08/13 03:44:50;;;;;;;13.25;11.35;;;;;;;17.86;91.80957;95678.41;;;;
2021/08/13 03:45:51;;;;;;;13.25;11.35;;;;;;;17.86;91.80957;95678.41;;;;
2021/08/13 03:46:51;;;;;;;13.25;11.35;;;;;;;17.86;91.80957;95678.41;;;;
2021/08/13 03:47:52;;;;;;;13.25;11.35;;;;;;;17.86;91.80957;95678.41;;;;
2021/08/13 03:48:52;;;;;;;12.6;10.85;;;;;;;18.05;91.5127;95675.82;;;;
2021/08/13 03:49:53;;;;;;;12.6;10.85;;;;;;;18.05;91.5127;95675.82;;;;
2021/08/13 03:50:53;;;;;;;12.6;10.85;;;;;;;18.05;91.5127;95675.82;;;;
2021/08/13 03:51:57;;;;;;;12.6;10.85;;;;;;;18.05;91.5127;95675.82;;;;
2021/08/13 03:52:57;;;;;;;12.6;10.85;;;;;;;18.05;91.5127;95675.82;;;;
2021/08/13 03:53:58;;;;;;;12.6;10.85;;;;;;;18.05;91.5127;95675.82;;;;
2021/08/13 03:54:58;;;;;;;12.6;10.85;;;;;;;18.05;91.5127;95675.82;;;;
2021/08/13 03:55:59;;;;;;;12.6;10.85;;;;;;;18.05;91.5127;95675.82;;;;
2021/08/13 03:56:59;;;;;;;12.6;10.85;;;;;;;18.05;91.5127;95675.82;;;;
2021/08/13 03:57:59;;;;;;;12.6;10.85;;;;;;;18.05;91.5127;95675.82;;;;
2021/08/13 03:59:00;;;;;;;12.2;11.1;;;;;;;18.03;91.24023;95675.69;;;;
2021/08/13 04:00:01;;;;;;;12.2;11.1;;;;;;;18.03;91.24023;95675.69;;;;
2021/08/13 04:01:02;;;;;;;12.2;11.1;;;;;;;18.03;91.24023;95675.69;;;;
2021/08/13 04:02:05;;;;;;;12.2;11.1;;;;;;;18.03;91.24023;95675.69;;;;
2021/08/13 04:03:05;;;;;;;12.2;11.1;;;;;;;18.03;91.24023;95675.69;;;;
2021/08/13 04:04:06;;;;;;;12.2;11.1;;;;;;;18.03;91.24023;95675.69;;;;
2021/08/13 04:05:06;;;;;;;12.2;11.1;;;;;;;18.03;91.24023;95675.69;;;;
2021/08/13 04:06:08;;;;;;;12.2;11.1;;;;;;;18.03;91.24023;95675.69;;;;
2021/08/13 04:07:09;;;;;;;12.2;11.1;;;;;;;18.03;91.24023;95675.69;;;;
2021/08/13 04:08:10;;;;;;;12.2;11.1;;;;;;;18.03;91.24023;95675.69;;;;
2021/08/13 04:09:10;;;;;;;12.2;11.1;;;;;;;18.03;91.24023;95675.69;;;;
2021/08/13 04:10:11;;;;;;;12.55;11.3;;;;;;;17.96;91.46289;95687.02;;;;
2021/08/13 04:11:11;;;;;;;12.55;11.3;;;;;;;17.96;91.46289;95687.02;;;;
2021/08/13 04:12:12;;;;;;;12.55;11.3;;;;;;;17.96;91.46289;95687.02;;;;
2021/08/13 04:13:12;;;;;;;12.55;11.3;;;;;;;17.96;91.46289;95687.02;;;;
2021/08/13 04:14:13;;;;;;;12.55;11.3;;;;;;;17.96;91.46289;95687.02;;;;
2021/08/13 04:15:13;;;;;;;12.55;11.3;;;;;;;17.96;91.46289;95687.02;;;;
2021/08/13 04:16:14;;;;;;;12.55;11.3;;;;;;;17.96;91.46289;95687.02;;;;
2021/08/13 04:17:16;;;;;;;12.55;11.3;;;;;;;17.96;91.46289;95687.02;;;;
2021/08/13 04:18:16;;;;;;;12.55;11.3;;;;;;;17.96;91.46289;95687.02;;;;
2021/08/13 04:19:17;;;;;;;12.55;11.3;;;;;;;17.96;91.46289;95687.02;;;;
2021/08/13 04:20:17;;;;;;;11.95;10.8;;;;;;;18.07;91.26953;95694.55;;;;
2021/08/13 04:21:18;;;;;;;11.95;10.8;;;;;;;18.07;91.26953;95694.55;;;;
2021/08/13 04:22:18;;;;;;;11.95;10.8;;;;;;;18.07;91.26953;95694.55;;;;
2021/08/13 04:23:19;;;;;;;11.95;10.8;;;;;;;18.07;91.26953;95694.55;;;;
2021/08/13 04:24:20;;;;;;;11.95;10.8;;;;;;;18.07;91.26953;95694.55;;;;
2021/08/13 04:25:20;;;;;;;11.95;10.8;;;;;;;18.07;91.26953;95694.55;;;;
2021/08/13 04:26:20;;;;;;;11.95;10.8;;;;;;;18.07;91.26953;95694.55;;;;
2021/08/13 04:27:21;;;;;;;11.95;10.8;;;;;;;18.07;91.26953;95694.55;;;;
2021/08/13 04:28:21;;;;;;;11.95;10.8;;;;;;;18.07;91.26953;95694.55;;;;
2021/08/13 04:29:22;;;;;;;11.95;10.8;;;;;;;18.07;91.26953;95694.55;;;;
2021/08/13 04:30:22;;;;;;;11.95;10.8;;;;;;;18.07;91.26953;95694.55;;;;
2021/08/13 04:31:24;;;;;;;11.8;10.65;;;;;;;18.24;91.1748;95701.92;;;;
2021/08/13 04:32:25;;;;;;;11.8;10.65;;;;;;;18.24;91.1748;95701.92;;;;
2021/08/13 04:33:25;;;;;;;11.8;10.65;;;;;;;18.24;91.1748;95701.92;;;;
2021/08/13 04:34:26;;;;;;;11.8;10.65;;;;;;;18.24;91.1748;95701.92;;;;
2021/08/13 04:35:26;;;;;;;11.8;10.65;;;;;;;18.24;91.1748;95701.92;;;;
2021/08/13 04:36:27;;;;;;;11.8;10.65;;;;;;;18.24;91.1748;95701.92;;;;
2021/08/13 04:37:28;;;;;;;11.8;10.65;;;;;;;18.24;91.1748;95701.92;;;;
2021/08/13 04:38:28;;;;;;;11.8;10.65;;;;;;;18.24;91.1748;95701.92;;;;
2021/08/13 04:39:29;;;;;;;11.8;10.65;;;;;;;18.24;91.1748;95701.92;;;;
2021/08/13 04:40:29;;;;;;;11.8;10.65;;;;;;;18.24;91.1748;95701.92;;;;
2021/08/13 04:41:30;;;;;;;12.35;11.1;;;;;;;18.51;90.94434;95710.44;;;;
2021/08/13 04:42:31;;;;;;;12.35;11.1;;;;;;;18.51;90.94434;95710.44;;;;
2021/08/13 04:43:31;;;;;;;12.35;11.1;;;;;;;18.51;90.94434;95710.44;;;;
2021/08/13 04:44:32;;;;;;;12.35;11.1;;;;;;;18.51;90.94434;95710.44;;;;
2021/08/13 04:45:33;;;;;;;12.35;11.1;;;;;;;18.51;90.94434;95710.44;;;;
2021/08/13 04:46:33;;;;;;;12.35;11.1;;;;;;;18.51;90.94434;95710.44;;;;
2021/08/13 04:47:33;;;;;;;12.35;11.1;;;;;;;18.51;90.94434;95710.44;;;;
2021/08/13 04:48:34;;;;;;;12.35;11.1;;;;;;;18.51;90.94434;95710.44;;;;
2021/08/13 04:49:35;;;;;;;12.35;11.1;;;;;;;18.51;90.94434;95710.44;;;;
2021/08/13 04:50:36;;;;;;;12.35;11.1;;;;;;;18.51;90.94434;95710.44;;;;
2021/08/13 04:51:36;;;;;;;12.35;11.1;;;;;;;18.51;90.94434;95710.44;;;;
2021/08/13 04:52:37;;;;;;;12.2;10.9;;;;;;;18.89;90.88184;95714.73;;;;
2021/08/13 04:53:42;;;;;;;12.2;10.9;;;;;;;18.89;90.88184;95714.73;;;;
2021/08/13 04:54:46;;;;;;;12.2;10.9;;;;;;;18.89;90.88184;95714.73;;;;
2021/08/13 04:55:47;;;;;;;12.2;10.9;;;;;;;18.89;90.88184;95714.73;;;;
2021/08/13 04:56:47;;;;;;;12.2;10.9;;;;;;;18.89;90.88184;95714.73;;;;
2021/08/13 04:57:48;;;;;;;12.2;10.9;;;;;;;18.89;90.88184;95714.73;;;;
2021/08/13 04:58:49;;;;;;;12.2;10.9;;;;;;;18.89;90.88184;95714.73;;;;
2021/08/13 04:59:49;;;;;;;12.2;10.9;;;;;;;18.89;90.88184;95714.73;;;;
2021/08/13 05:00:50;;;;;;;12.2;10.9;;;;;;;18.89;90.88184;95714.73;;;;
2021/08/13 05:01:50;;;;;;;12.2;10.9;;;;;;;18.89;90.88184;95714.73;;;;
2021/08/13 05:02:51;;;;;;;12.7;11.2;;;;;;;19.21;90.46094;95720.67;;;;
2021/08/13 05:03:51;;;;;;;12.7;11.2;;;;;;;19.21;90.46094;95720.67;;;;
2021/08/13 05:04:52;;;;;;;12.7;11.2;;;;;;;19.21;90.46094;95720.67;;;;
2021/08/13 05:05:57;;;;;;;12.7;11.2;;;;;;;19.21;90.46094;95720.67;;;;
2021/08/13 05:06:57;;;;;;;12.7;11.2;;;;;;;19.21;90.46094;95720.67;;;;
2021/08/13 05:07:58;;;;;;;12.7;11.2;;;;;;;19.21;90.46094;95720.67;;;;
2021/08/13 05:08:58;;;;;;;12.7;11.2;;;;;;;19.21;90.46094;95720.67;;;;
2021/08/13 05:09:59;;;;;;;12.7;11.2;;;;;;;19.21;90.46094;95720.67;;;;
2021/08/13 05:11:05;;;;;;;12.7;11.2;;;;;;;19.21;90.46094;95720.67;;;;
2021/08/13 05:12:06;;;;;;;12.7;11.2;;;;;;;19.21;90.46094;95720.67;;;;
2021/08/13 05:13:06;;;;;;;12.7;11.2;;;;;;;19.21;90.46094;95720.67;;;;
2021/08/13 05:14:07;;;;;;;13.2;11.8;;;;;;;19.42;90.51172;95726.51;;;;
2021/08/13 05:15:07;;;;;;;13.2;11.8;;;;;;;19.42;90.51172;95726.51;;;;
2021/08/13 05:16:10;;;;;;;13.2;11.8;;;;;;;19.42;90.51172;95726.51;;;;
2021/08/13 05:17:10;;;;;;;13.2;11.8;;;;;;;19.42;90.51172;95726.51;;;;
2021/08/13 05:18:11;;;;;;;13.2;11.8;;;;;;;19.42;90.51172;95726.51;;;;
2021/08/13 05:19:11;;;;;;;13.2;11.8;;;;;;;19.42;90.51172;95726.51;;;;
2021/08/13 05:20:12;;;;;;;13.2;11.8;;;;;;;19.42;90.51172;95726.51;;;;
2021/08/13 05:21:12;;;;;;;13.2;11.8;;;;;;;19.42;90.51172;95726.51;;;;
2021/08/13 05:22:13;;;;;;;13.2;11.8;;;;;;;19.42;90.51172;95726.51;;;;
2021/08/13 05:23:14;;;;;;;13.2;11.8;;;;;;;19.42;90.51172;95726.51;;;;
2021/08/13 05:24:15;;;;;;;12.55;11.05;;;;;;;19.63;90.81641;95733.53;;;;
2021/08/13 05:25:15;;;;;;;12.55;11.05;;;;;;;19.63;90.81641;95733.53;;;;
2021/08/13 05:26:16;;;;;;;12.55;11.05;;;;;;;19.63;90.81641;95733.53;;;;
2021/08/13 05:27:16;;;;;;;12.55;11.05;;;;;;;19.63;90.81641;95733.53;;;;
2021/08/13 05:28:17;;;;;;;12.55;11.05;;;;;;;19.63;90.81641;95733.53;;;;
2021/08/13 05:29:17;;;;;;;12.55;11.05;;;;;;;19.63;90.81641;95733.53;;;;
2021/08/13 05:30:18;;;;;;;12.55;11.05;;;;;;;19.63;90.81641;95733.53;;;;
2021/08/13 05:31:18;;;;;;;12.55;11.05;;;;;;;19.63;90.81641;95733.53;;;;
2021/08/13 05:32:19;;;;;;;12.55;11.05;;;;;;;19.63;90.81641;95733.53;;;;
2021/08/13 05:33:19;;;;;;;12.55;11.05;;;;;;;19.63;90.81641;95733.53;;;;
2021/08/13 05:34:20;;;;;;;12.55;11.05;;;;;;;19.63;90.81641;95733.53;;;;
2021/08/13 05:35:21;;;;;;;11.6;10.5;;;;;;;20.11;90.38086;95764.23;;;;
2021/08/13 05:36:21;;;;;;;11.6;10.5;;;;;;;20.11;90.38086;95764.23;;;;
2021/08/13 05:37:22;;;;;;;11.6;10.5;;;;;;;20.11;90.38086;95764.23;;;;
2021/08/13 05:38:22;;;;;;;11.6;10.5;;;;;;;20.11;90.38086;95764.23;;;;
2021/08/13 05:39:23;;;;;;;11.6;10.5;;;;;;;20.11;90.38086;95764.23;;;;
2021/08/13 05:40:23;;;;;;;11.6;10.5;;;;;;;20.11;90.38086;95764.23;;;;
2021/08/13 05:41:24;;;;;;;11.6;10.5;;;;;;;20.11;90.38086;95764.23;;;;
2021/08/13 05:42:25;;;;;;;11.6;10.5;;;;;;;20.11;90.38086;95764.23;;;;
2021/08/13 05:43:25;;;;;;;11.6;10.5;;;;;;;20.11;90.38086;95764.23;;;;
2021/08/13 05:44:25;;;;;;;11.6;10.5;;;;;;;20.11;90.38086;95764.23;;;;
2021/08/13 05:45:26;;;;;;;16.7;12.15;;;;;;;20.27;89.58594;95791.89;;;;
2021/08/13 05:46:27;;;;;;;16.7;12.15;;;;;;;20.27;89.58594;95791.89;;;;
2021/08/13 05:47:27;;;;;;;16.7;12.15;;;;;;;20.27;89.58594;95791.89;;;;
2021/08/13 05:48:28;;;;;;;16.7;12.15;;;;;;;20.27;89.58594;95791.89;;;;